sensor_id;sensor_type;location;lat;lon;timestamp;P1;durP1;ratioP1;P2;durP2;ratioP2
49854;SDS011;35752;52.164;21.244;2023-03-31T00:01:15;26.17;;;21.23;;
49854;SDS011;35752;52.164;21.244;2023-03-31T00:03:40;29.65;;;21.38;;
49854;SDS011;35752;52.164;21.244;2023-03-31T00:06:08;27.50;;;21.33;;
49854;SDS011;35752;52.164;21.244;2023-03-31T00:08:35;28.65;;;23.05;;
49854;SDS011;35752;52.164;21.244;2023-03-31T00:11:02;29.58;;;22.40;;
49854;SDS011;35752;52.164;21.244;2023-03-31T00:13:29;29.95;;;22.30;;
49854;SDS011;35752;52.164;21.244;2023-03-31T00:16:06;24.40;;;21.67;;
49854;SDS011;35752;52.164;21.244;2023-03-31T00:18:34;29.70;;;21.85;;
49854;SDS011;35752;52.164;21.244;2023-03-31T00:21:10;26.05;;;22.45;;
49854;SDS011;35752;52.164;21.244;2023-03-31T00:23:38;26.35;;;21.63;;
49854;SDS011;35752;52.164;21.244;2023-03-31T00:26:05;28.65;;;21.42;;
49854;SDS011;35752;52.164;21.244;2023-03-31T00:28:31;25.55;;;20.67;;
49854;SDS011;35752;52.164;21.244;2023-03-31T00:31:03;27.05;;;20.73;;
49854;SDS011;35752;52.164;21.244;2023-03-31T00:33:28;27.27;;;21.05;;
49854;SDS011;35752;52.164;21.244;2023-03-31T00:35:54;24.67;;;20.38;;
49854;SDS011;35752;52.164;21.244;2023-03-31T00:38:20;26.00;;;20.67;;
49854;SDS011;35752;52.164;21.244;2023-03-31T00:40:46;26.50;;;21.13;;
49854;SDS011;35752;52.164;21.244;2023-03-31T00:46:09;23.75;;;18.85;;
49854;SDS011;35752;52.164;21.244;2023-03-31T00:48:46;23.38;;;19.05;;
49854;SDS011;35752;52.164;21.244;2023-03-31T00:51:15;21.80;;;18.60;;
49854;SDS011;35752;52.164;21.244;2023-03-31T00:53:45;21.73;;;17.70;;
49854;SDS011;35752;52.164;21.244;2023-03-31T00:56:19;19.92;;;17.83;;
49854;SDS011;35752;52.164;21.244;2023-03-31T00:58:46;23.63;;;16.90;;
49854;SDS011;35752;52.164;21.244;2023-03-31T01:01:15;21.05;;;18.05;;
49854;SDS011;35752;52.164;21.244;2023-03-31T01:06:11;22.23;;;17.58;;
49854;SDS011;35752;52.164;21.244;2023-03-31T01:08:39;20.80;;;17.05;;
49854;SDS011;35752;52.164;21.244;2023-03-31T01:11:06;23.73;;;19.13;;
49854;SDS011;35752;52.164;21.244;2023-03-31T01:13:35;19.25;;;16.42;;
49854;SDS011;35752;52.164;21.244;2023-03-31T01:16:02;21.60;;;16.48;;
49854;SDS011;35752;52.164;21.244;2023-03-31T01:18:28;22.60;;;15.63;;
49854;SDS011;35752;52.164;21.244;2023-03-31T01:32:17;17.33;;;13.13;;
49854;SDS011;35752;52.164;21.244;2023-03-31T01:38:11;20.08;;;14.30;;
49854;SDS011;35752;52.164;21.244;2023-03-31T01:46:46;21.30;;;13.95;;
49854;SDS011;35752;52.164;21.244;2023-03-31T01:54:21;16.55;;;14.57;;
49854;SDS011;35752;52.164;21.244;2023-03-31T01:59:36;15.57;;;14.07;;
49854;SDS011;35752;52.164;21.244;2023-03-31T02:02:27;18.33;;;14.40;;
49854;SDS011;35752;52.164;21.244;2023-03-31T02:04:59;16.27;;;14.48;;
49854;SDS011;35752;52.164;21.244;2023-03-31T02:08:04;17.98;;;15.40;;
49854;SDS011;35752;52.164;21.244;2023-03-31T02:10:31;16.85;;;14.65;;
49854;SDS011;35752;52.164;21.244;2023-03-31T02:12:59;18.35;;;13.88;;
49854;SDS011;35752;52.164;21.244;2023-03-31T02:15:30;18.67;;;15.35;;
49854;SDS011;35752;52.164;21.244;2023-03-31T02:18:00;18.67;;;14.43;;
49854;SDS011;35752;52.164;21.244;2023-03-31T02:20:30;14.67;;;13.10;;
49854;SDS011;35752;52.164;21.244;2023-03-31T02:22:57;15.10;;;13.50;;
49854;SDS011;35752;52.164;21.244;2023-03-31T02:25:27;15.98;;;14.10;;
49854;SDS011;35752;52.164;21.244;2023-03-31T02:27:59;15.85;;;13.82;;
49854;SDS011;35752;52.164;21.244;2023-03-31T02:30:33;17.40;;;14.02;;
49854;SDS011;35752;52.164;21.244;2023-03-31T02:33:07;16.98;;;13.95;;
49854;SDS011;35752;52.164;21.244;2023-03-31T02:35:33;16.55;;;14.23;;
49854;SDS011;35752;52.164;21.244;2023-03-31T02:38:00;15.80;;;13.25;;
49854;SDS011;35752;52.164;21.244;2023-03-31T02:40:26;16.00;;;13.10;;
49854;SDS011;35752;52.164;21.244;2023-03-31T02:42:52;15.32;;;13.50;;
49854;SDS011;35752;52.164;21.244;2023-03-31T02:48:10;15.48;;;12.98;;
49854;SDS011;35752;52.164;21.244;2023-03-31T02:53:21;15.13;;;12.48;;
49854;SDS011;35752;52.164;21.244;2023-03-31T02:56:23;14.57;;;12.30;;
49854;SDS011;35752;52.164;21.244;2023-03-31T03:07:33;13.60;;;12.23;;
49854;SDS011;35752;52.164;21.244;2023-03-31T03:12:44;14.40;;;12.48;;
49854;SDS011;35752;52.164;21.244;2023-03-31T03:15:34;15.10;;;12.57;;
49854;SDS011;35752;52.164;21.244;2023-03-31T03:18:05;15.88;;;12.73;;
49854;SDS011;35752;52.164;21.244;2023-03-31T03:20:31;14.63;;;13.10;;
49854;SDS011;35752;52.164;21.244;2023-03-31T03:22:59;16.08;;;12.90;;
49854;SDS011;35752;52.164;21.244;2023-03-31T03:25:25;19.85;;;13.07;;
49854;SDS011;35752;52.164;21.244;2023-03-31T03:27:51;15.02;;;12.73;;
49854;SDS011;35752;52.164;21.244;2023-03-31T03:30:17;13.63;;;12.23;;
49854;SDS011;35752;52.164;21.244;2023-03-31T03:32:43;13.63;;;12.20;;
49854;SDS011;35752;52.164;21.244;2023-03-31T03:35:10;15.60;;;12.70;;
49854;SDS011;35752;52.164;21.244;2023-03-31T03:37:35;14.82;;;13.07;;
49854;SDS011;35752;52.164;21.244;2023-03-31T03:40:02;14.05;;;12.55;;
49854;SDS011;35752;52.164;21.244;2023-03-31T03:42:30;14.77;;;13.20;;
49854;SDS011;35752;52.164;21.244;2023-03-31T03:44:55;13.52;;;12.20;;
49854;SDS011;35752;52.164;21.244;2023-03-31T03:47:21;15.63;;;12.77;;
49854;SDS011;35752;52.164;21.244;2023-03-31T03:49:47;15.52;;;12.85;;
49854;SDS011;35752;52.164;21.244;2023-03-31T03:52:13;15.25;;;13.02;;
49854;SDS011;35752;52.164;21.244;2023-03-31T03:54:39;19.10;;;13.23;;
49854;SDS011;35752;52.164;21.244;2023-03-31T03:57:05;19.20;;;13.65;;
49854;SDS011;35752;52.164;21.244;2023-03-31T03:59:31;13.65;;;12.15;;
49854;SDS011;35752;52.164;21.244;2023-03-31T04:01:56;14.88;;;13.30;;
49854;SDS011;35752;52.164;21.244;2023-03-31T04:04:22;15.35;;;13.55;;
49854;SDS011;35752;52.164;21.244;2023-03-31T04:06:48;15.27;;;13.60;;
49854;SDS011;35752;52.164;21.244;2023-03-31T04:09:14;17.63;;;14.00;;
49854;SDS011;35752;52.164;21.244;2023-03-31T04:11:40;16.65;;;12.98;;
49854;SDS011;35752;52.164;21.244;2023-03-31T04:14:05;17.75;;;13.73;;
49854;SDS011;35752;52.164;21.244;2023-03-31T04:16:31;14.40;;;12.73;;
49854;SDS011;35752;52.164;21.244;2023-03-31T04:18:58;18.73;;;14.07;;
49854;SDS011;35752;52.164;21.244;2023-03-31T04:21:27;17.80;;;14.25;;
49854;SDS011;35752;52.164;21.244;2023-03-31T04:23:54;16.63;;;14.07;;
49854;SDS011;35752;52.164;21.244;2023-03-31T04:26:26;20.02;;;14.32;;
49854;SDS011;35752;52.164;21.244;2023-03-31T04:29:03;16.45;;;14.60;;
49854;SDS011;35752;52.164;21.244;2023-03-31T04:31:30;18.13;;;13.57;;
49854;SDS011;35752;52.164;21.244;2023-03-31T04:33:55;18.77;;;13.88;;
49854;SDS011;35752;52.164;21.244;2023-03-31T04:38:52;17.30;;;13.73;;
49854;SDS011;35752;52.164;21.244;2023-03-31T04:41:19;17.27;;;13.73;;
49854;SDS011;35752;52.164;21.244;2023-03-31T04:43:45;17.65;;;14.20;;
49854;SDS011;35752;52.164;21.244;2023-03-31T04:46:11;18.65;;;13.65;;
49854;SDS011;35752;52.164;21.244;2023-03-31T04:48:36;16.92;;;13.70;;
49854;SDS011;35752;52.164;21.244;2023-03-31T04:51:02;14.63;;;12.75;;
49854;SDS011;35752;52.164;21.244;2023-03-31T04:53:29;16.70;;;13.55;;
49854;SDS011;35752;52.164;21.244;2023-03-31T04:55:55;22.13;;;14.80;;
49854;SDS011;35752;52.164;21.244;2023-03-31T04:58:21;18.73;;;13.32;;
49854;SDS011;35752;52.164;21.244;2023-03-31T05:00:47;16.55;;;13.35;;
49854;SDS011;35752;52.164;21.244;2023-03-31T05:03:12;16.27;;;12.60;;
49854;SDS011;35752;52.164;21.244;2023-03-31T05:05:38;17.20;;;13.75;;
49854;SDS011;35752;52.164;21.244;2023-03-31T05:08:04;16.63;;;12.77;;
49854;SDS011;35752;52.164;21.244;2023-03-31T05:10:29;16.70;;;13.15;;
49854;SDS011;35752;52.164;21.244;2023-03-31T05:12:55;18.08;;;12.35;;
49854;SDS011;35752;52.164;21.244;2023-03-31T05:15:21;15.95;;;12.52;;
49854;SDS011;35752;52.164;21.244;2023-03-31T05:17:48;14.68;;;12.40;;
49854;SDS011;35752;52.164;21.244;2023-03-31T05:20:16;15.35;;;12.13;;
49854;SDS011;35752;52.164;21.244;2023-03-31T05:22:43;15.90;;;12.05;;
49854;SDS011;35752;52.164;21.244;2023-03-31T05:25:09;14.73;;;12.70;;
49854;SDS011;35752;52.164;21.244;2023-03-31T05:27:38;14.02;;;12.27;;
49854;SDS011;35752;52.164;21.244;2023-03-31T05:30:04;15.43;;;12.82;;
49854;SDS011;35752;52.164;21.244;2023-03-31T05:32:30;13.77;;;12.07;;
49854;SDS011;35752;52.164;21.244;2023-03-31T05:34:55;17.05;;;12.57;;
49854;SDS011;35752;52.164;21.244;2023-03-31T05:37:24;19.25;;;12.85;;
49854;SDS011;35752;52.164;21.244;2023-03-31T05:39:51;17.38;;;12.93;;
49854;SDS011;35752;52.164;21.244;2023-03-31T05:42:17;16.52;;;12.82;;
49854;SDS011;35752;52.164;21.244;2023-03-31T05:44:43;16.98;;;14.43;;
49854;SDS011;35752;52.164;21.244;2023-03-31T05:47:09;16.42;;;13.02;;
49854;SDS011;35752;52.164;21.244;2023-03-31T05:49:35;16.23;;;13.57;;
49854;SDS011;35752;52.164;21.244;2023-03-31T05:52:02;32.78;;;15.02;;
49854;SDS011;35752;52.164;21.244;2023-03-31T05:54:28;20.33;;;14.50;;
49854;SDS011;35752;52.164;21.244;2023-03-31T05:56:54;20.77;;;14.10;;
49854;SDS011;35752;52.164;21.244;2023-03-31T05:59:20;15.45;;;13.85;;
49854;SDS011;35752;52.164;21.244;2023-03-31T06:01:46;18.67;;;15.27;;
49854;SDS011;35752;52.164;21.244;2023-03-31T06:04:11;21.73;;;15.05;;
49854;SDS011;35752;52.164;21.244;2023-03-31T06:06:37;24.02;;;14.50;;
49854;SDS011;35752;52.164;21.244;2023-03-31T06:09:03;18.33;;;14.65;;
49854;SDS011;35752;52.164;21.244;2023-03-31T06:11:29;17.10;;;14.50;;
49854;SDS011;35752;52.164;21.244;2023-03-31T06:13:55;17.08;;;13.77;;
49854;SDS011;35752;52.164;21.244;2023-03-31T06:16:21;18.00;;;13.90;;
49854;SDS011;35752;52.164;21.244;2023-03-31T06:18:47;19.40;;;13.57;;
49854;SDS011;35752;52.164;21.244;2023-03-31T06:21:15;17.92;;;14.10;;
49854;SDS011;35752;52.164;21.244;2023-03-31T06:23:42;21.00;;;14.15;;
49854;SDS011;35752;52.164;21.244;2023-03-31T06:26:11;22.25;;;13.20;;
49854;SDS011;35752;52.164;21.244;2023-03-31T06:28:41;18.23;;;13.10;;
49854;SDS011;35752;52.164;21.244;2023-03-31T06:31:12;17.13;;;13.55;;
49854;SDS011;35752;52.164;21.244;2023-03-31T06:33:40;19.63;;;13.38;;
49854;SDS011;35752;52.164;21.244;2023-03-31T06:36:06;17.58;;;13.50;;
49854;SDS011;35752;52.164;21.244;2023-03-31T06:38:33;15.70;;;12.98;;
49854;SDS011;35752;52.164;21.244;2023-03-31T06:40:59;24.83;;;13.23;;
49854;SDS011;35752;52.164;21.244;2023-03-31T06:43:25;17.52;;;12.88;;
49854;SDS011;35752;52.164;21.244;2023-03-31T06:45:51;18.15;;;13.38;;
49854;SDS011;35752;52.164;21.244;2023-03-31T06:48:18;15.73;;;12.38;;
49854;SDS011;35752;52.164;21.244;2023-03-31T06:50:43;14.20;;;12.80;;
49854;SDS011;35752;52.164;21.244;2023-03-31T06:53:09;14.18;;;12.40;;
49854;SDS011;35752;52.164;21.244;2023-03-31T06:55:35;17.85;;;13.20;;
49854;SDS011;35752;52.164;21.244;2023-03-31T06:58:02;15.20;;;12.30;;
49854;SDS011;35752;52.164;21.244;2023-03-31T07:00:28;16.10;;;11.98;;
49854;SDS011;35752;52.164;21.244;2023-03-31T07:02:54;15.98;;;12.73;;
49854;SDS011;35752;52.164;21.244;2023-03-31T07:05:20;17.90;;;12.18;;
49854;SDS011;35752;52.164;21.244;2023-03-31T07:07:53;12.57;;;11.27;;
49854;SDS011;35752;52.164;21.244;2023-03-31T07:10:19;15.77;;;12.15;;
49854;SDS011;35752;52.164;21.244;2023-03-31T07:12:45;14.68;;;12.20;;
49854;SDS011;35752;52.164;21.244;2023-03-31T07:15:11;16.50;;;12.30;;
49854;SDS011;35752;52.164;21.244;2023-03-31T07:17:36;17.35;;;12.38;;
49854;SDS011;35752;52.164;21.244;2023-03-31T07:20:06;16.30;;;11.77;;
49854;SDS011;35752;52.164;21.244;2023-03-31T07:22:36;12.90;;;11.43;;
49854;SDS011;35752;52.164;21.244;2023-03-31T07:25:02;16.27;;;11.95;;
49854;SDS011;35752;52.164;21.244;2023-03-31T07:27:28;13.30;;;11.73;;
49854;SDS011;35752;52.164;21.244;2023-03-31T07:29:54;14.63;;;11.90;;
49854;SDS011;35752;52.164;21.244;2023-03-31T07:32:20;13.57;;;12.13;;
49854;SDS011;35752;52.164;21.244;2023-03-31T07:34:47;15.32;;;12.50;;
49854;SDS011;35752;52.164;21.244;2023-03-31T07:37:13;19.05;;;13.20;;
49854;SDS011;35752;52.164;21.244;2023-03-31T07:39:38;14.52;;;12.20;;
49854;SDS011;35752;52.164;21.244;2023-03-31T07:42:04;15.27;;;12.98;;
49854;SDS011;35752;52.164;21.244;2023-03-31T07:44:32;14.90;;;12.75;;
49854;SDS011;35752;52.164;21.244;2023-03-31T07:47:01;15.82;;;13.85;;
49854;SDS011;35752;52.164;21.244;2023-03-31T07:49:30;17.10;;;13.75;;
49854;SDS011;35752;52.164;21.244;2023-03-31T07:51:56;17.85;;;13.23;;
49854;SDS011;35752;52.164;21.244;2023-03-31T07:54:22;20.45;;;14.63;;
49854;SDS011;35752;52.164;21.244;2023-03-31T07:56:47;17.20;;;14.82;;
49854;SDS011;35752;52.164;21.244;2023-03-31T07:59:13;17.42;;;13.45;;
49854;SDS011;35752;52.164;21.244;2023-03-31T08:01:39;15.25;;;13.65;;
49854;SDS011;35752;52.164;21.244;2023-03-31T08:04:04;15.55;;;13.82;;
49854;SDS011;35752;52.164;21.244;2023-03-31T08:06:30;18.02;;;13.80;;
49854;SDS011;35752;52.164;21.244;2023-03-31T08:08:56;21.55;;;14.20;;
49854;SDS011;35752;52.164;21.244;2023-03-31T08:11:23;17.00;;;13.98;;
49854;SDS011;35752;52.164;21.244;2023-03-31T08:13:50;15.15;;;13.63;;
49854;SDS011;35752;52.164;21.244;2023-03-31T08:16:16;16.60;;;14.23;;
49854;SDS011;35752;52.164;21.244;2023-03-31T08:18:42;18.33;;;14.80;;
49854;SDS011;35752;52.164;21.244;2023-03-31T08:21:08;17.80;;;14.25;;
49854;SDS011;35752;52.164;21.244;2023-03-31T08:23:34;17.60;;;13.65;;
49854;SDS011;35752;52.164;21.244;2023-03-31T08:26:07;17.08;;;13.30;;
49854;SDS011;35752;52.164;21.244;2023-03-31T08:28:33;18.23;;;14.30;;
49854;SDS011;35752;52.164;21.244;2023-03-31T08:31:05;14.52;;;12.43;;
49854;SDS011;35752;52.164;21.244;2023-03-31T08:33:32;15.73;;;11.55;;
49854;SDS011;35752;52.164;21.244;2023-03-31T08:36:02;17.02;;;12.93;;
49854;SDS011;35752;52.164;21.244;2023-03-31T08:38:28;13.82;;;12.38;;
49854;SDS011;35752;52.164;21.244;2023-03-31T08:41:01;14.60;;;11.82;;
49854;SDS011;35752;52.164;21.244;2023-03-31T08:43:30;14.48;;;12.15;;
49854;SDS011;35752;52.164;21.244;2023-03-31T08:45:58;17.40;;;12.82;;
49854;SDS011;35752;52.164;21.244;2023-03-31T08:48:31;16.15;;;12.25;;
49854;SDS011;35752;52.164;21.244;2023-03-31T08:51:08;14.82;;;12.60;;
49854;SDS011;35752;52.164;21.244;2023-03-31T08:53:42;16.33;;;11.23;;
49854;SDS011;35752;52.164;21.244;2023-03-31T08:56:35;13.05;;;11.65;;
49854;SDS011;35752;52.164;21.244;2023-03-31T08:59:06;13.38;;;11.63;;
49854;SDS011;35752;52.164;21.244;2023-03-31T09:07:06;11.70;;;9.13;;
49854;SDS011;35752;52.164;21.244;2023-03-31T09:09:46;13.73;;;9.52;;
49854;SDS011;35752;52.164;21.244;2023-03-31T09:12:29;15.95;;;8.50;;
49854;SDS011;35752;52.164;21.244;2023-03-31T09:15:13;10.75;;;8.05;;
49854;SDS011;35752;52.164;21.244;2023-03-31T09:17:48;9.55;;;6.65;;
49854;SDS011;35752;52.164;21.244;2023-03-31T09:20:19;9.02;;;7.25;;
49854;SDS011;35752;52.164;21.244;2023-03-31T09:22:59;11.43;;;7.80;;
49854;SDS011;35752;52.164;21.244;2023-03-31T09:25:37;9.68;;;8.23;;
49854;SDS011;35752;52.164;21.244;2023-03-31T09:28:06;12.07;;;8.45;;
49854;SDS011;35752;52.164;21.244;2023-03-31T09:30:42;12.15;;;9.35;;
49854;SDS011;35752;52.164;21.244;2023-03-31T09:33:15;9.48;;;7.88;;
49854;SDS011;35752;52.164;21.244;2023-03-31T09:35:58;10.20;;;8.43;;
49854;SDS011;35752;52.164;21.244;2023-03-31T09:38:25;12.02;;;8.63;;
49854;SDS011;35752;52.164;21.244;2023-03-31T09:40:54;11.27;;;7.25;;
49854;SDS011;35752;52.164;21.244;2023-03-31T09:43:22;12.90;;;7.80;;
49854;SDS011;35752;52.164;21.244;2023-03-31T09:45:52;9.40;;;7.40;;
49854;SDS011;35752;52.164;21.244;2023-03-31T09:48:22;9.57;;;7.80;;
49854;SDS011;35752;52.164;21.244;2023-03-31T09:51:03;10.80;;;8.25;;
49854;SDS011;35752;52.164;21.244;2023-03-31T09:56:02;14.02;;;6.90;;
49854;SDS011;35752;52.164;21.244;2023-03-31T09:58:30;10.35;;;6.35;;
49854;SDS011;35752;52.164;21.244;2023-03-31T10:00:57;8.65;;;5.95;;
49854;SDS011;35752;52.164;21.244;2023-03-31T10:03:28;10.00;;;6.13;;
49854;SDS011;35752;52.164;21.244;2023-03-31T10:06:00;11.77;;;6.45;;
49854;SDS011;35752;52.164;21.244;2023-03-31T10:08:38;14.30;;;7.15;;
49854;SDS011;35752;52.164;21.244;2023-03-31T10:11:12;11.90;;;5.55;;
49854;SDS011;35752;52.164;21.244;2023-03-31T10:13:47;9.48;;;5.68;;
49854;SDS011;35752;52.164;21.244;2023-03-31T10:16:27;8.63;;;5.20;;
49854;SDS011;35752;52.164;21.244;2023-03-31T10:18:54;6.28;;;4.28;;
49854;SDS011;35752;52.164;21.244;2023-03-31T10:22:33;8.85;;;4.90;;
49854;SDS011;35752;52.164;21.244;2023-03-31T10:24:50;8.43;;;5.13;;
49854;SDS011;35752;52.164;21.244;2023-03-31T10:29:42;10.25;;;5.50;;
49854;SDS011;35752;52.164;21.244;2023-03-31T10:32:19;8.23;;;5.10;;
49854;SDS011;35752;52.164;21.244;2023-03-31T10:37:18;10.80;;;4.55;;
49854;SDS011;35752;52.164;21.244;2023-03-31T10:39:47;8.82;;;4.53;;
49854;SDS011;35752;52.164;21.244;2023-03-31T10:42:21;10.85;;;3.83;;
49854;SDS011;35752;52.164;21.244;2023-03-31T10:44:47;8.85;;;3.90;;
49854;SDS011;35752;52.164;21.244;2023-03-31T10:49:43;12.55;;;4.57;;
49854;SDS011;35752;52.164;21.244;2023-03-31T10:52:23;8.93;;;3.75;;
49854;SDS011;35752;52.164;21.244;2023-03-31T10:54:55;8.32;;;4.00;;
49854;SDS011;35752;52.164;21.244;2023-03-31T10:57:27;12.98;;;4.00;;
49854;SDS011;35752;52.164;21.244;2023-03-31T11:00:17;11.85;;;4.10;;
49854;SDS011;35752;52.164;21.244;2023-03-31T11:06:09;9.38;;;3.65;;
49854;SDS011;35752;52.164;21.244;2023-03-31T11:08:19;10.27;;;3.53;;
49854;SDS011;35752;52.164;21.244;2023-03-31T11:11:12;9.18;;;2.83;;
49854;SDS011;35752;52.164;21.244;2023-03-31T11:13:55;8.52;;;3.92;;
49854;SDS011;35752;52.164;21.244;2023-03-31T11:17:03;10.32;;;2.85;;
49854;SDS011;35752;52.164;21.244;2023-03-31T11:19:41;6.40;;;2.63;;
49854;SDS011;35752;52.164;21.244;2023-03-31T11:32:47;5.57;;;2.85;;
49854;SDS011;35752;52.164;21.244;2023-03-31T11:43:28;8.70;;;3.20;;
49854;SDS011;35752;52.164;21.244;2023-03-31T11:48:40;14.57;;;3.20;;
49854;SDS011;35752;52.164;21.244;2023-03-31T11:53:55;8.30;;;3.17;;
49854;SDS011;35752;52.164;21.244;2023-03-31T11:56:24;7.70;;;2.22;;
49854;SDS011;35752;52.164;21.244;2023-03-31T11:59:03;5.22;;;2.63;;
49854;SDS011;35752;52.164;21.244;2023-03-31T12:04:33;7.97;;;2.40;;
49854;SDS011;35752;52.164;21.244;2023-03-31T12:07:09;4.70;;;2.28;;
49854;SDS011;35752;52.164;21.244;2023-03-31T12:12:38;6.38;;;2.92;;
49854;SDS011;35752;52.164;21.244;2023-03-31T12:17:46;5.53;;;1.90;;
49854;SDS011;35752;52.164;21.244;2023-03-31T12:20:32;9.35;;;2.30;;
49854;SDS011;35752;52.164;21.244;2023-03-31T12:23:02;5.90;;;2.03;;
49854;SDS011;35752;52.164;21.244;2023-03-31T12:25:38;7.10;;;2.03;;
49854;SDS011;35752;52.164;21.244;2023-03-31T12:28:15;6.30;;;1.95;;
49854;SDS011;35752;52.164;21.244;2023-03-31T12:30:42;9.48;;;2.72;;
49854;SDS011;35752;52.164;21.244;2023-03-31T12:36:19;7.72;;;2.20;;
49854;SDS011;35752;52.164;21.244;2023-03-31T12:59:32;6.82;;;2.25;;
49854;SDS011;35752;52.164;21.244;2023-03-31T13:04:40;7.30;;;2.03;;
49854;SDS011;35752;52.164;21.244;2023-03-31T13:07:52;7.18;;;2.20;;
49854;SDS011;35752;52.164;21.244;2023-03-31T13:09:56;8.10;;;2.42;;
49854;SDS011;35752;52.164;21.244;2023-03-31T13:12:24;5.05;;;2.33;;
49854;SDS011;35752;52.164;21.244;2023-03-31T13:14:52;4.45;;;2.20;;
49854;SDS011;35752;52.164;21.244;2023-03-31T13:17:41;5.22;;;2.22;;
49854;SDS011;35752;52.164;21.244;2023-03-31T13:20:30;8.93;;;2.75;;
49854;SDS011;35752;52.164;21.244;2023-03-31T13:33:06;3.47;;;1.88;;
49854;SDS011;35752;52.164;21.244;2023-03-31T13:35:38;5.43;;;1.80;;
49854;SDS011;35752;52.164;21.244;2023-03-31T13:44:04;5.55;;;1.58;;
49854;SDS011;35752;52.164;21.244;2023-03-31T13:53:01;3.33;;;1.33;;
49854;SDS011;35752;52.164;21.244;2023-03-31T14:01:43;4.47;;;1.88;;
49854;SDS011;35752;52.164;21.244;2023-03-31T14:09:42;5.15;;;1.80;;
49854;SDS011;35752;52.164;21.244;2023-03-31T14:14:54;6.47;;;2.10;;
49854;SDS011;35752;52.164;21.244;2023-03-31T14:17:27;7.85;;;2.35;;
49854;SDS011;35752;52.164;21.244;2023-03-31T14:20:19;5.28;;;1.65;;
49854;SDS011;35752;52.164;21.244;2023-03-31T14:25:48;3.85;;;1.50;;
49854;SDS011;35752;52.164;21.244;2023-03-31T14:31:13;5.00;;;1.88;;
49854;SDS011;35752;52.164;21.244;2023-03-31T14:36:32;5.60;;;2.58;;
49854;SDS011;35752;52.164;21.244;2023-03-31T14:39:04;6.88;;;2.50;;
49854;SDS011;35752;52.164;21.244;2023-03-31T14:41:33;6.05;;;2.92;;
49854;SDS011;35752;52.164;21.244;2023-03-31T14:44:02;8.77;;;3.47;;
49854;SDS011;35752;52.164;21.244;2023-03-31T14:46:31;7.05;;;3.13;;
49854;SDS011;35752;52.164;21.244;2023-03-31T14:49:05;8.05;;;3.03;;
49854;SDS011;35752;52.164;21.244;2023-03-31T14:51:53;7.72;;;3.08;;
49854;SDS011;35752;52.164;21.244;2023-03-31T14:54:22;6.90;;;3.38;;
49854;SDS011;35752;52.164;21.244;2023-03-31T14:56:54;9.82;;;2.70;;
49854;SDS011;35752;52.164;21.244;2023-03-31T14:59:23;8.18;;;2.40;;
49854;SDS011;35752;52.164;21.244;2023-03-31T15:01:52;8.80;;;2.67;;
49854;SDS011;35752;52.164;21.244;2023-03-31T15:04:22;9.13;;;2.50;;
49854;SDS011;35752;52.164;21.244;2023-03-31T15:06:52;8.18;;;3.25;;
49854;SDS011;35752;52.164;21.244;2023-03-31T15:09:21;9.18;;;3.40;;
49854;SDS011;35752;52.164;21.244;2023-03-31T15:11:54;9.80;;;2.90;;
49854;SDS011;35752;52.164;21.244;2023-03-31T15:14:23;9.82;;;3.90;;
49854;SDS011;35752;52.164;21.244;2023-03-31T15:16:54;9.82;;;3.63;;
49854;SDS011;35752;52.164;21.244;2023-03-31T15:19:21;11.77;;;4.03;;
49854;SDS011;35752;52.164;21.244;2023-03-31T15:21:57;12.00;;;4.40;;
49854;SDS011;35752;52.164;21.244;2023-03-31T15:24:25;16.30;;;5.10;;
49854;SDS011;35752;52.164;21.244;2023-03-31T15:29:46;12.32;;;5.07;;
49854;SDS011;35752;52.164;21.244;2023-03-31T15:32:25;10.48;;;3.95;;
49854;SDS011;35752;52.164;21.244;2023-03-31T15:34:53;12.18;;;4.18;;
49854;SDS011;35752;52.164;21.244;2023-03-31T15:37:21;8.30;;;3.72;;
49854;SDS011;35752;52.164;21.244;2023-03-31T15:39:51;11.30;;;4.57;;
49854;SDS011;35752;52.164;21.244;2023-03-31T15:42:19;10.15;;;4.70;;
49854;SDS011;35752;52.164;21.244;2023-03-31T15:44:45;12.52;;;6.30;;
49854;SDS011;35752;52.164;21.244;2023-03-31T15:47:20;10.38;;;4.22;;
49854;SDS011;35752;52.164;21.244;2023-03-31T15:49:52;9.90;;;3.08;;
49854;SDS011;35752;52.164;21.244;2023-03-31T15:52:31;6.70;;;2.70;;
49854;SDS011;35752;52.164;21.244;2023-03-31T15:54:59;2.97;;;1.48;;
49854;SDS011;35752;52.164;21.244;2023-03-31T15:57:32;2.97;;;1.55;;
49854;SDS011;35752;52.164;21.244;2023-03-31T16:00:00;4.53;;;1.38;;
49854;SDS011;35752;52.164;21.244;2023-03-31T16:02:38;4.78;;;1.88;;
49854;SDS011;35752;52.164;21.244;2023-03-31T16:05:19;4.30;;;1.75;;
49854;SDS011;35752;52.164;21.244;2023-03-31T16:07:51;3.85;;;1.38;;
49854;SDS011;35752;52.164;21.244;2023-03-31T16:10:18;2.80;;;1.38;;
49854;SDS011;35752;52.164;21.244;2023-03-31T16:12:48;6.60;;;1.70;;
49854;SDS011;35752;52.164;21.244;2023-03-31T16:15:19;3.97;;;1.95;;
49854;SDS011;35752;52.164;21.244;2023-03-31T16:17:53;4.18;;;2.10;;
49854;SDS011;35752;52.164;21.244;2023-03-31T16:20:41;2.88;;;1.38;;
49854;SDS011;35752;52.164;21.244;2023-03-31T16:23:14;6.30;;;1.50;;
49854;SDS011;35752;52.164;21.244;2023-03-31T16:25:42;3.97;;;1.50;;
49854;SDS011;35752;52.164;21.244;2023-03-31T16:28:11;8.90;;;2.05;;
49854;SDS011;35752;52.164;21.244;2023-03-31T16:30:40;4.20;;;2.30;;
49854;SDS011;35752;52.164;21.244;2023-03-31T16:33:08;4.32;;;2.20;;
49854;SDS011;35752;52.164;21.244;2023-03-31T16:35:36;4.15;;;2.30;;
49854;SDS011;35752;52.164;21.244;2023-03-31T16:38:04;4.25;;;2.53;;
49854;SDS011;35752;52.164;21.244;2023-03-31T16:40:38;4.38;;;2.58;;
49854;SDS011;35752;52.164;21.244;2023-03-31T16:45:43;5.93;;;3.60;;
49854;SDS011;35752;52.164;21.244;2023-03-31T16:48:11;7.03;;;3.47;;
49854;SDS011;35752;52.164;21.244;2023-03-31T16:50:36;6.75;;;3.42;;
49854;SDS011;35752;52.164;21.244;2023-03-31T16:53:02;6.05;;;3.50;;
49854;SDS011;35752;52.164;21.244;2023-03-31T16:55:29;5.90;;;3.95;;
49854;SDS011;35752;52.164;21.244;2023-03-31T16:57:56;6.45;;;3.67;;
49854;SDS011;35752;52.164;21.244;2023-03-31T17:00:23;8.88;;;5.22;;
49854;SDS011;35752;52.164;21.244;2023-03-31T17:02:49;6.32;;;4.25;;
49854;SDS011;35752;52.164;21.244;2023-03-31T17:05:15;6.95;;;4.53;;
49854;SDS011;35752;52.164;21.244;2023-03-31T17:07:41;10.20;;;4.60;;
49854;SDS011;35752;52.164;21.244;2023-03-31T17:10:07;7.63;;;5.13;;
49854;SDS011;35752;52.164;21.244;2023-03-31T17:12:33;10.30;;;5.22;;
49854;SDS011;35752;52.164;21.244;2023-03-31T17:14:58;7.55;;;4.63;;
49854;SDS011;35752;52.164;21.244;2023-03-31T17:17:24;4.65;;;3.92;;
49854;SDS011;35752;52.164;21.244;2023-03-31T17:19:50;7.57;;;4.80;;
49854;SDS011;35752;52.164;21.244;2023-03-31T17:22:16;5.88;;;4.00;;
49854;SDS011;35752;52.164;21.244;2023-03-31T17:24:42;6.40;;;4.07;;
49854;SDS011;35752;52.164;21.244;2023-03-31T17:27:08;6.20;;;4.38;;
49854;SDS011;35752;52.164;21.244;2023-03-31T17:29:33;7.88;;;4.63;;
49854;SDS011;35752;52.164;21.244;2023-03-31T17:31:59;7.07;;;3.97;;
49854;SDS011;35752;52.164;21.244;2023-03-31T17:34:25;7.22;;;4.53;;
49854;SDS011;35752;52.164;21.244;2023-03-31T17:36:50;6.32;;;4.80;;